createdAt,value
2022-08-09T00:00:18.161Z,86.40
2022-08-09T00:02:49.318Z,87.30
2022-08-09T00:06:19.506Z,87.80
2022-08-09T00:08:35.462Z,88.40
2022-08-09T00:11:05.995Z,89.10
2022-08-09T00:13:54.278Z,89.20
2022-08-09T00:16:26.029Z,89.50
2022-08-09T00:19:22.425Z,89.80
2022-08-09T00:21:56.637Z,90.10
2022-08-09T00:24:29.050Z,90.30
2022-08-09T00:26:55.992Z,90.60
2022-08-09T00:29:39.628Z,90.90
2022-08-09T00:32:26.892Z,90.90
2022-08-09T00:34:58.620Z,91.00
2022-08-09T00:37:26.082Z,91.00
2022-08-09T00:40:13.225Z,91.00
2022-08-09T00:44:14.248Z,91.10
2022-08-09T00:45:34.787Z,91.50
2022-08-09T00:48:03.575Z,91.60
2022-08-09T00:50:31.155Z,91.50
2022-08-09T00:52:59.210Z,91.70
2022-08-09T00:56:03.380Z,91.90
2022-08-09T00:58:22.175Z,92.40
2022-08-09T01:00:59.035Z,92.50
2022-08-09T01:03:36.450Z,92.80
2022-08-09T01:06:53.554Z,93.40
2022-08-09T01:09:23.976Z,93.80
2022-08-09T01:12:40.328Z,94.00
2022-08-09T01:15:16.976Z,94.40
2022-08-09T01:17:48.760Z,94.70
2022-08-09T01:20:38.329Z,95.10
2022-08-09T01:24:02.716Z,95.00
2022-08-09T01:26:46.268Z,95.60
2022-08-09T01:29:28.093Z,95.90
2022-08-09T01:32:31.482Z,96.20
2022-08-09T01:34:55.545Z,96.50
2022-08-09T01:37:43.188Z,97.00
2022-08-09T01:40:23.129Z,97.30
2022-08-09T01:42:57.942Z,97.40
2022-08-09T01:45:32.422Z,97.50
2022-08-09T01:48:02.113Z,97.70
2022-08-09T01:50:37.284Z,98.10
2022-08-09T01:53:19.948Z,98.20
2022-08-09T01:55:50.738Z,98.50
2022-08-09T01:58:24.089Z,99.10
2022-08-09T02:00:54.165Z,99.10
2022-08-09T02:03:32.901Z,99.40
2022-08-09T02:06:07.154Z,99.90
2022-08-09T02:08:57.406Z,99.90
2022-08-09T02:11:42.797Z,99.90
2022-08-09T02:14:26.275Z,99.90
2022-08-09T02:16:59.711Z,99.90
2022-08-09T02:19:43.601Z,99.90
2022-08-09T02:22:31.515Z,99.90
2022-08-09T02:25:25.127Z,99.90
2022-08-09T02:28:04.046Z,99.90
2022-08-09T02:30:42.485Z,99.90
2022-08-09T02:33:17.838Z,99.90
2022-08-09T02:36:02.925Z,99.90
2022-08-09T02:38:35.407Z,99.90
2022-08-09T02:41:08.159Z,99.90
2022-08-09T02:43:53.590Z,99.90
2022-08-09T02:46:29.745Z,99.90
2022-08-09T02:49:03.088Z,99.90
2022-08-09T02:51:42.016Z,99.90
2022-08-09T02:54:14.005Z,99.90
2022-08-09T02:56:51.681Z,99.90
2022-08-09T02:59:36.539Z,99.90
2022-08-09T03:02:16.918Z,99.90
2022-08-09T03:04:46.549Z,99.90
2022-08-09T03:07:18.460Z,99.90
2022-08-09T03:09:56.405Z,99.90
2022-08-09T03:12:38.957Z,99.90
2022-08-09T03:15:08.472Z,99.90
2022-08-09T03:17:39.147Z,99.90
2022-08-09T03:20:11.558Z,99.90
2022-08-09T03:22:43.651Z,99.90
2022-08-09T03:25:26.181Z,99.90
2022-08-09T03:28:01.935Z,99.90
2022-08-09T03:30:33.926Z,99.90
2022-08-09T03:33:17.413Z,99.90
2022-08-09T03:36:13.571Z,99.90
2022-08-09T03:38:42.619Z,99.90
2022-08-09T03:41:16.093Z,99.90
2022-08-09T03:44:03.690Z,99.90
2022-08-09T03:50:41.867Z,99.90
2022-08-09T03:53:10.566Z,99.90
2022-08-09T03:55:57.833Z,99.90
2022-08-09T03:58:26.917Z,99.90
2022-08-09T04:00:57.644Z,99.90
2022-08-09T04:03:46.077Z,99.90
2022-08-09T04:06:12.973Z,99.90
2022-08-09T04:08:41.365Z,99.90
2022-08-09T04:11:13.360Z,99.90
2022-08-09T04:14:37.646Z,99.90
2022-08-09T04:16:30.571Z,99.90
2022-08-09T04:18:58.002Z,99.90
2022-08-09T04:21:27.907Z,99.90
2022-08-09T04:23:57.625Z,99.90
2022-08-09T04:26:25.172Z,99.90
2022-08-09T04:29:10.942Z,99.90
2022-08-09T04:31:47.242Z,99.90
2022-08-09T04:34:19.163Z,99.90
2022-08-09T04:36:57.384Z,99.90
2022-08-09T04:42:19.878Z,99.90
2022-08-09T04:44:49.586Z,99.90
2022-08-09T04:47:22.277Z,99.90
2022-08-09T04:49:54.406Z,99.90
2022-08-09T04:52:30.430Z,99.90
2022-08-09T04:55:07.906Z,99.90
2022-08-09T04:57:47.445Z,99.90
2022-08-09T05:00:31.708Z,99.90
2022-08-09T05:03:13.395Z,99.90
2022-08-09T05:06:04.457Z,99.90
2022-08-09T05:08:36.758Z,99.90
2022-08-09T05:11:07.639Z,99.90
2022-08-09T05:13:38.647Z,99.90
2022-08-09T05:16:07.959Z,99.90
2022-08-09T05:18:37.445Z,99.90
2022-08-09T05:21:24.693Z,99.90
2022-08-09T05:24:01.578Z,99.90
2022-08-09T05:26:33.885Z,99.90
2022-08-09T05:29:21.781Z,99.90
2022-08-09T05:31:56.761Z,99.90
2022-08-09T05:34:35.287Z,99.90
2022-08-09T05:37:06.804Z,99.90
2022-08-09T05:39:43.964Z,99.90
2022-08-09T05:42:17.742Z,99.90
2022-08-09T05:44:54.180Z,99.90
2022-08-09T05:47:27.086Z,99.90
2022-08-09T05:50:30.149Z,99.90
2022-08-09T05:52:53.853Z,99.90
2022-08-09T05:55:29.153Z,99.90
2022-08-09T05:58:00.697Z,99.90
2022-08-09T06:00:33.104Z,99.90
2022-08-09T06:03:01.869Z,99.90
2022-08-09T06:05:57.564Z,99.90
2022-08-09T06:08:28.070Z,99.90
2022-08-09T06:11:02.288Z,99.90
2022-08-09T06:13:44.357Z,99.90
2022-08-09T06:16:15.258Z,99.90
2022-08-09T06:18:43.714Z,99.90
2022-08-09T06:21:10.494Z,99.90
2022-08-09T06:23:54.968Z,99.90
2022-08-09T06:26:28.548Z,99.90
2022-08-09T06:29:04.751Z,99.90
2022-08-09T06:31:40.143Z,99.90
2022-08-09T06:34:22.855Z,99.90
2022-08-09T06:36:50.994Z,99.60
2022-08-09T06:39:48.689Z,99.40
2022-08-09T06:42:24.395Z,99.00
2022-08-09T06:44:54.764Z,98.60
2022-08-09T06:47:21.999Z,98.70
2022-08-09T06:50:13.449Z,98.50
2022-08-09T06:53:08.304Z,98.00
2022-08-09T06:55:38.213Z,97.80
2022-08-09T06:58:05.707Z,97.70
2022-08-09T07:03:39.669Z,97.80
2022-08-09T07:06:53.450Z,97.40
2022-08-09T07:09:55.865Z,96.60
2022-08-09T07:12:17.445Z,96.00
2022-08-09T07:14:51.180Z,96.00
2022-08-09T07:17:21.519Z,95.70
2022-08-09T07:19:50.561Z,96.00
2022-08-09T07:22:18.366Z,95.60
2022-08-09T07:24:49.296Z,95.40
2022-08-09T07:27:33.609Z,95.30
2022-08-09T07:30:03.022Z,94.90
2022-08-09T07:32:32.838Z,94.80
2022-08-09T07:35:10.225Z,95.00
2022-08-09T07:37:44.843Z,94.20
2022-08-09T07:40:25.282Z,95.40
2022-08-09T07:43:02.726Z,93.90
2022-08-09T07:45:37.702Z,93.50
2022-08-09T07:48:25.409Z,93.10
2022-08-09T07:51:03.163Z,92.20
2022-08-09T07:54:04.727Z,91.50
2022-08-09T07:56:44.715Z,91.20
2022-08-09T07:59:25.100Z,91.00
2022-08-09T08:02:03.275Z,90.70
2022-08-09T08:04:33.007Z,90.60
2022-08-09T08:07:15.065Z,89.50
2022-08-09T08:10:07.527Z,89.10
2022-08-09T08:12:54.633Z,88.00
2022-08-09T08:15:24.132Z,87.60
2022-08-09T08:17:58.276Z,87.40
2022-08-09T08:20:30.389Z,87.10
2022-08-09T08:23:16.046Z,86.70
2022-08-09T08:25:50.261Z,84.00
2022-08-09T08:28:32.327Z,82.70
2022-08-09T08:31:10.495Z,83.30
2022-08-09T08:34:02.217Z,80.90
2022-08-09T08:36:33.458Z,80.00
2022-08-09T08:39:03.071Z,79.50
2022-08-09T08:41:41.757Z,78.90
2022-08-09T08:44:28.988Z,80.30
2022-08-09T08:46:59.633Z,76.20
2022-08-09T08:49:46.432Z,76.10
2022-08-09T08:52:59.682Z,74.50
2022-08-09T08:55:15.292Z,75.10
2022-08-09T08:57:57.156Z,75.50
2022-08-09T09:00:30.337Z,73.80
2022-08-09T09:03:11.465Z,72.80
2022-08-09T09:06:00.150Z,71.40
2022-08-09T09:08:59.696Z,69.50
2022-08-09T09:11:30.067Z,69.00
2022-08-09T09:14:22.200Z,68.70
2022-08-09T09:16:50.841Z,67.40
2022-08-09T09:19:37.598Z,66.80
2022-08-09T09:22:15.895Z,66.60
2022-08-09T09:24:48.249Z,65.70
2022-08-09T09:28:03.625Z,65.10
2022-08-09T09:30:38.289Z,64.60
2022-08-09T09:33:16.751Z,63.00
2022-08-09T09:36:00.702Z,63.50
2022-08-09T09:38:55.962Z,62.50
2022-08-09T09:41:25.768Z,61.10
2022-08-09T09:44:11.927Z,59.70
2022-08-09T09:46:52.295Z,58.60
2022-08-09T09:49:31.954Z,57.00
2022-08-09T09:55:24.004Z,55.00
2022-08-09T09:58:16.952Z,53.90
2022-08-09T10:01:00.195Z,52.60
2022-08-09T10:03:39.843Z,51.40
2022-08-09T10:06:09.443Z,52.20
2022-08-09T10:08:42.435Z,52.10
2022-08-09T10:11:53.774Z,51.50
2022-08-09T10:14:31.879Z,51.90
2022-08-09T10:17:40.101Z,51.80
2022-08-09T10:20:27.483Z,50.00
2022-08-09T10:23:16.907Z,50.30
2022-08-09T10:26:06.217Z,47.90
2022-08-09T10:28:36.140Z,47.10
2022-08-09T10:34:32.250Z,49.20
2022-08-09T10:36:45.530Z,47.50
2022-08-09T10:39:15.844Z,47.60
2022-08-09T10:41:45.818Z,48.50
2022-08-09T10:44:22.003Z,47.40
2022-08-09T10:48:13.434Z,46.90
2022-08-09T10:51:05.978Z,46.20
2022-08-09T10:54:15.519Z,46.90
2022-08-09T10:56:44.545Z,46.90
2022-08-09T10:59:31.119Z,46.70
2022-08-09T11:03:12.074Z,46.90
2022-08-09T11:05:25.005Z,47.50
2022-08-09T11:08:51.246Z,47.10
2022-08-09T11:11:22.172Z,46.20
2022-08-09T11:14:33.439Z,45.60
2022-08-09T11:17:22.767Z,47.00
2022-08-09T11:20:37.877Z,46.30
2022-08-09T11:23:07.295Z,45.60
2022-08-09T11:26:03.985Z,46.40
2022-08-09T11:28:54.428Z,45.20
2022-08-09T11:31:53.028Z,44.30
2022-08-09T11:34:30.915Z,44.50
2022-08-09T11:37:02.874Z,45.00
2022-08-09T11:40:02.977Z,43.90
2022-08-09T11:42:49.201Z,43.90
2022-08-09T11:45:42.902Z,44.40
2022-08-09T11:48:25.134Z,44.50
2022-08-09T11:52:38.686Z,44.20
2022-08-09T11:54:13.599Z,43.20
2022-08-09T11:56:42.445Z,43.00
2022-08-09T11:59:30.235Z,42.20
2022-08-09T12:02:18.153Z,41.60
2022-08-09T12:04:51.151Z,41.60
2022-08-09T12:07:41.429Z,41.00
2022-08-09T12:10:14.079Z,41.20
2022-08-09T12:14:10.511Z,40.40
2022-08-09T12:16:02.047Z,40.60
2022-08-09T12:18:33.646Z,39.70
2022-08-09T12:21:38.578Z,40.50
2022-08-09T12:24:09.389Z,40.40
2022-08-09T12:26:44.775Z,39.40
2022-08-09T12:29:33.035Z,39.20
2022-08-09T12:32:10.205Z,38.90
2022-08-09T12:34:40.070Z,40.10
2022-08-09T12:37:23.891Z,40.70
2022-08-09T12:40:10.767Z,40.30
2022-08-09T12:42:43.565Z,39.20
2022-08-09T12:45:33.951Z,38.40
2022-08-09T12:48:33.272Z,39.00
2022-08-09T12:51:04.299Z,38.10
2022-08-09T12:53:38.609Z,38.10
2022-08-09T12:56:29.805Z,38.50
2022-08-09T12:59:10.921Z,38.50
2022-08-09T13:02:01.849Z,38.10
2022-08-09T13:04:36.199Z,37.70
2022-08-09T13:07:11.216Z,37.10
2022-08-09T13:09:40.772Z,37.60
2022-08-09T13:12:10.015Z,37.20
2022-08-09T13:14:47.301Z,37.20
2022-08-09T13:17:43.971Z,37.80
2022-08-09T13:20:13.976Z,37.10
2022-08-09T13:23:02.047Z,36.40
2022-08-09T13:25:54.988Z,36.50
2022-08-09T13:28:34.705Z,36.30
2022-08-09T13:32:12.589Z,36.50
2022-08-09T13:33:56.852Z,36.60
2022-08-09T13:36:40.538Z,36.70
2022-08-09T13:41:52.042Z,36.30
2022-08-09T13:42:12.290Z,36.10
2022-08-09T13:44:42.780Z,35.10
2022-08-09T13:47:33.482Z,35.10
2022-08-09T13:50:31.229Z,33.90
2022-08-09T13:52:58.948Z,35.40
2022-08-09T13:55:28.985Z,34.80
2022-08-09T13:57:58.479Z,34.30
2022-08-09T14:00:34.053Z,33.50
2022-08-09T14:04:00.937Z,34.30
2022-08-09T14:06:00.618Z,33.90
2022-08-09T14:08:36.709Z,33.40
2022-08-09T14:11:15.867Z,33.60
2022-08-09T14:14:22.822Z,33.80
2022-08-09T14:16:37.258Z,34.50
2022-08-09T14:19:06.845Z,33.30
2022-08-09T14:21:33.585Z,33.50
2022-08-09T14:24:05.475Z,33.60
2022-08-09T14:26:47.093Z,33.00
2022-08-09T14:30:04.271Z,33.20
2022-08-09T14:32:13.128Z,33.60
2022-08-09T14:34:43.660Z,32.80
2022-08-09T14:37:16.482Z,34.20
2022-08-09T14:39:48.596Z,33.00
2022-08-09T14:42:30.386Z,32.90
2022-08-09T14:45:01.271Z,33.40
2022-08-09T14:47:44.972Z,34.30
2022-08-09T14:50:18.970Z,32.60
2022-08-09T14:52:50.101Z,32.70
2022-08-09T14:55:20.320Z,32.70
2022-08-09T14:57:48.965Z,31.90
2022-08-09T15:00:16.922Z,33.40
2022-08-09T15:02:47.652Z,33.40
2022-08-09T15:05:24.955Z,33.60
2022-08-09T15:07:56.222Z,33.50
2022-08-09T15:10:25.988Z,34.30
2022-08-09T15:12:53.944Z,33.30
2022-08-09T15:15:21.289Z,33.70
2022-08-09T15:17:52.318Z,34.40
2022-08-09T15:21:56.274Z,34.70
2022-08-09T15:24:02.744Z,35.20
2022-08-09T15:29:04.989Z,34.60
2022-08-09T15:32:04.596Z,35.10
2022-08-09T15:34:35.608Z,35.80
2022-08-09T15:37:23.660Z,35.10
2022-08-09T15:39:54.675Z,34.30
2022-08-09T15:42:27.349Z,35.30
2022-08-09T15:45:02.721Z,34.20
2022-08-09T15:47:52.336Z,35.10
2022-08-09T15:50:28.721Z,35.60
2022-08-09T15:53:06.971Z,36.30
2022-08-09T15:56:10.965Z,36.50
2022-08-09T15:58:30.645Z,36.30
2022-08-09T16:00:59.595Z,37.00
2022-08-09T16:03:38.237Z,37.10
2022-08-09T16:06:32.673Z,36.90
2022-08-09T16:09:01.234Z,37.70
2022-08-09T16:11:33.300Z,37.40
2022-08-09T16:14:06.843Z,37.60
2022-08-09T16:16:39.012Z,37.80
2022-08-09T16:19:09.820Z,37.60
2022-08-09T16:21:37.607Z,38.00
2022-08-09T16:24:19.990Z,37.80
2022-08-09T16:26:56.755Z,37.80
2022-08-09T16:29:37.915Z,38.10
2022-08-09T16:32:33.686Z,38.00
2022-08-09T16:35:06.784Z,38.60
2022-08-09T16:37:54.889Z,38.40
2022-08-09T16:40:40.124Z,38.60
2022-08-09T16:43:08.638Z,38.70
2022-08-09T16:45:44.274Z,38.40
2022-08-09T16:48:42.614Z,38.60
2022-08-09T16:51:07.867Z,39.00
2022-08-09T16:54:02.441Z,39.10
2022-08-09T16:56:30.462Z,39.50
2022-08-09T16:58:58.866Z,39.60
2022-08-09T17:01:25.975Z,39.50
2022-08-09T17:03:56.008Z,39.50
2022-08-09T17:06:31.304Z,39.60
2022-08-09T17:09:12.079Z,39.80
2022-08-09T17:11:51.416Z,40.20
2022-08-09T17:14:27.377Z,40.70
2022-08-09T17:17:01.357Z,40.50
2022-08-09T17:20:04.986Z,39.80
2022-08-09T17:22:36.044Z,40.10
2022-08-09T17:25:17.512Z,41.60
2022-08-09T17:27:49.263Z,40.70
2022-08-09T17:30:25.995Z,40.50
2022-08-09T17:32:54.857Z,40.60
2022-08-09T17:35:26.829Z,40.90
2022-08-09T17:38:14.487Z,40.80
2022-08-09T17:40:47.469Z,40.70
2022-08-09T17:43:35.440Z,40.80
2022-08-09T17:46:06.717Z,41.00
2022-08-09T17:48:38.961Z,41.40
2022-08-09T17:51:17.495Z,41.30
2022-08-09T17:53:51.424Z,42.10
2022-08-09T17:56:35.462Z,41.90
2022-08-09T17:59:08.987Z,41.80
2022-08-09T18:02:03.899Z,42.10
2022-08-09T18:04:28.401Z,42.20
2022-08-09T18:06:59.560Z,42.20
2022-08-09T18:09:40.498Z,42.40
2022-08-09T18:12:20.177Z,42.50
2022-08-09T18:14:54.593Z,43.00
2022-08-09T18:17:27.094Z,43.30
2022-08-09T18:20:55.835Z,43.00
2022-08-09T18:23:05.371Z,43.20
2022-08-09T18:25:52.885Z,43.30
2022-08-09T18:30:38.672Z,43.90
2022-08-09T18:31:15.040Z,43.30
2022-08-09T18:33:53.462Z,43.90
2022-08-09T18:36:32.572Z,44.20
2022-08-09T18:39:11.650Z,44.10
2022-08-09T18:41:52.812Z,44.30
2022-08-09T18:44:32.532Z,44.40
2022-08-09T18:52:59.894Z,45.20
2022-08-09T18:55:56.189Z,45.30
2022-08-09T18:58:32.154Z,45.20
2022-08-09T19:01:02.964Z,45.60
2022-08-09T19:03:29.683Z,45.60
2022-08-09T19:06:16.696Z,46.20
2022-08-09T19:08:54.892Z,46.40
2022-08-09T19:11:37.802Z,46.50
2022-08-09T19:14:08.180Z,46.50
2022-08-09T19:16:36.368Z,46.50
2022-08-09T19:19:26.099Z,47.50
2022-08-09T19:22:06.853Z,47.10
2022-08-09T19:25:09.560Z,47.50
2022-08-09T19:27:28.493Z,47.60
2022-08-09T19:30:21.348Z,47.90
2022-08-09T19:32:53.064Z,47.90
2022-08-09T19:35:26.322Z,48.00
2022-08-09T19:38:02.503Z,48.60
2022-08-09T19:40:34.498Z,49.10
2022-08-09T19:43:05.318Z,50.00
2022-08-09T19:45:42.149Z,50.70
2022-08-09T19:48:10.796Z,51.20
2022-08-09T19:50:51.222Z,52.20
2022-08-09T19:53:21.045Z,52.90
2022-08-09T19:56:02.955Z,53.80
2022-08-09T19:58:36.183Z,54.50
2022-08-09T20:01:05.272Z,55.20
2022-08-09T20:04:17.414Z,55.30
2022-08-09T20:06:31.328Z,55.60
2022-08-09T20:09:00.771Z,56.50
2022-08-09T20:11:33.783Z,57.00
2022-08-09T20:14:13.015Z,57.30
2022-08-09T20:16:53.873Z,57.50
2022-08-09T20:19:48.925Z,57.80
2022-08-09T20:22:16.569Z,58.50
2022-08-09T20:24:53.290Z,59.00
2022-08-09T20:30:33.440Z,60.00
2022-08-09T20:33:25.675Z,60.10
2022-08-09T20:35:56.177Z,60.80
2022-08-09T20:38:30.466Z,61.30
2022-08-09T20:41:15.843Z,62.00
2022-08-09T20:43:44.663Z,62.50
2022-08-09T20:46:15.516Z,62.90
2022-08-09T20:49:03.155Z,63.30
2022-08-09T20:51:29.885Z,63.80
2022-08-09T20:54:16.533Z,64.00
2022-08-09T20:56:49.658Z,64.30
2022-08-09T20:59:25.136Z,65.00
2022-08-09T21:02:09.840Z,65.10
2022-08-09T21:05:52.591Z,65.00
2022-08-09T21:07:40.411Z,65.50
2022-08-09T21:10:09.130Z,66.40
2022-08-09T21:15:35.040Z,67.40
2022-08-09T21:18:23.905Z,67.90
2022-08-09T21:20:54.068Z,68.40
2022-08-09T21:23:22.134Z,68.80
2022-08-09T21:26:06.914Z,69.40
2022-08-09T21:28:36.039Z,70.00
2022-08-09T21:31:17.049Z,70.50
2022-08-09T21:33:50.301Z,70.20
2022-08-09T21:36:23.861Z,71.20
2022-08-09T21:38:59.820Z,71.10
2022-08-09T21:42:03.485Z,70.50
2022-08-09T21:44:34.309Z,70.80
2022-08-09T21:47:07.882Z,71.40
2022-08-09T21:49:42.745Z,71.70
2022-08-09T21:52:15.028Z,72.20
2022-08-09T21:54:56.853Z,72.50
2022-08-09T21:57:38.763Z,72.80
2022-08-09T22:00:32.396Z,73.40
2022-08-09T22:03:05.872Z,73.40
2022-08-09T22:05:42.482Z,73.60
2022-08-09T22:08:14.444Z,74.10
2022-08-09T22:11:01.063Z,74.20
2022-08-09T22:13:39.315Z,74.40
2022-08-09T22:16:11.291Z,75.10
2022-08-09T22:18:44.173Z,75.10
2022-08-09T22:21:27.313Z,75.40
2022-08-09T22:24:17.167Z,75.90
2022-08-09T22:26:51.711Z,75.80
2022-08-09T22:29:24.080Z,75.90
2022-08-09T22:38:06.934Z,77.10
2022-08-09T22:41:09.706Z,77.20
2022-08-09T22:44:03.621Z,77.40
2022-08-09T22:48:11.354Z,77.80
2022-08-09T22:49:15.130Z,77.70
2022-08-09T22:51:49.645Z,77.90
2022-08-09T22:54:36.107Z,78.00
2022-08-09T22:57:03.422Z,78.10
2022-08-09T22:59:56.774Z,78.20
2022-08-09T23:02:22.283Z,78.70
2022-08-09T23:04:59.036Z,79.50
2022-08-09T23:08:22.118Z,79.60
2022-08-09T23:10:39.219Z,79.90
2022-08-09T23:13:15.241Z,79.80
2022-08-09T23:16:03.315Z,80.20
2022-08-09T23:18:33.187Z,80.80
2022-08-09T23:21:02.624Z,81.00
2022-08-09T23:23:30.734Z,81.60
2022-08-09T23:25:57.461Z,81.50
2022-08-09T23:28:24.204Z,81.50
2022-08-09T23:30:51.896Z,81.70
2022-08-09T23:33:20.555Z,81.40
2022-08-09T23:36:15.582Z,81.60
2022-08-09T23:38:48.765Z,81.90
2022-08-09T23:41:28.476Z,82.10
2022-08-09T23:44:00.781Z,82.30
2022-08-09T23:46:31.132Z,82.40
2022-08-09T23:48:58.950Z,82.70
2022-08-09T23:51:26.468Z,82.60
2022-08-09T23:54:01.815Z,82.40
2022-08-09T23:56:51.878Z,82.30
